Time;durP1;ratioP1;P1;durP2;ratioP2;P2;SDS_P1;SDS_P2;PMS_P1;PMS_P2;Temp;Humidity;BMP_temperature;BMP_pressure;BME280_temperature;BME280_humidity;BME280_pressure;Samples;Min_cycle;Max_cycle;Signal;HPM_P1;HPM_P2
2023/06/28 00:01:14;;;;;;;;;;;;;;;16.02;39.77;100634.66;4950622;28;100027;-71
2023/06/28 00:03:40;;;;;;;;;;;;;;;15.99;39.68;100637.19;4931561;27;98279;-71
2023/06/28 00:06:07;;;;;;;;;;;;;;;15.97;39.56;100631.25;4932429;28;98175;-71
2023/06/28 00:08:33;;;;;;;;;;;;;;;15.95;39.64;100639.69;4918821;28;99852;-68
2023/06/28 00:10:59;;;;;;;;;;;;;;;15.94;39.83;100628.00;4949755;28;98254;-68
2023/06/28 00:13:25;;;;;;;;;;;;;;;15.91;39.69;100628.59;4929778;27;98459;-68
2023/06/28 00:15:53;;;;;;;;;;;;;;;15.89;39.64;100630.03;4939305;28;98299;-71
2023/06/28 00:18:20;;;;;;;;;;;;;;;15.86;39.73;100630.63;4938246;27;98188;-70
2023/06/28 00:20:48;;;;;;;;;;;;;;;15.82;39.95;100638.56;4932479;27;98065;-70
2023/06/28 00:23:16;;;;;;;;;;;;;;;15.80;39.63;100634.50;4947878;27;98191;-70
2023/06/28 00:25:43;;;;;;;;;;;;;;;15.76;39.74;100628.88;4924274;27;99676;-70
2023/06/28 00:28:09;;;;;;;;;;;;;;;15.75;39.83;100634.59;4930474;27;97962;-71
2023/06/28 00:30:37;;;;;;;;;;;;;;;15.73;39.88;100634.91;4948845;27;98504;-71
2023/06/28 00:33:03;;;;;;;;;;;;;;;15.74;39.44;100635.72;4930424;27;98216;-69
2023/06/28 00:35:30;;;;;;;;;;;;;;;15.73;39.55;100634.09;4916988;28;98926;-68
2023/06/28 00:37:56;;;;;;;;;;;;;;;15.73;39.66;100639.53;4928374;27;98368;-70
2023/06/28 00:40:23;;;;;;;;;;;;;;;15.71;39.69;100626.22;4948975;27;97980;-71
2023/06/28 00:42:50;;;;;;;;;;;;;;;15.70;39.93;100633.59;4929446;28;98014;-70
2023/06/28 00:45:16;;;;;;;;;;;;;;;15.70;39.69;100640.94;4930720;28;99283;-68
2023/06/28 00:47:43;;;;;;;;;;;;;;;15.68;40.03;100630.38;4932134;27;98318;-68
2023/06/28 00:50:10;;;;;;;;;;;;;;;15.65;39.97;100636.41;4949102;27;98086;-68
2023/06/28 00:52:36;;;;;;;;;;;;;;;15.63;39.67;100641.28;4931717;28;98147;-71
2023/06/28 00:55:03;;;;;;;;;;;;;;;15.60;39.62;100633.75;4922170;28;98185;-70
2023/06/28 00:57:31;;;;;;;;;;;;;;;15.57;39.74;100639.75;4943222;28;98514;-71
2023/06/28 00:59:58;;;;;;;;;;;;;;;15.54;39.57;100639.53;4938614;27;98192;-71
2023/06/28 01:02:25;;;;;;;;;;;;;;;15.51;39.78;100632.78;4929805;28;98251;-68
2023/06/28 01:04:57;;;;;;;;;;;;;;;15.49;40.02;100636.91;4926987;28;98516;-71
2023/06/28 01:07:26;;;;;;;;;;;;;;;15.46;39.77;100638.31;4931993;28;97981;-71
2023/06/28 01:09:52;;;;;;;;;;;;;;;15.44;39.76;100641.31;4923074;28;99186;-68
2023/06/28 01:12:18;;;;;;;;;;;;;;;15.40;40.04;100643.00;4931843;28;97989;-70
2023/06/28 01:14:45;;;;;;;;;;;;;;;15.40;40.16;100653.06;4946604;27;98122;-71
2023/06/28 01:17:11;;;;;;;;;;;;;;;15.38;39.99;100645.22;4931298;28;98304;-71
2023/06/28 01:19:39;;;;;;;;;;;;;;;15.39;39.79;100646.00;4946812;28;99009;-68
2023/06/28 01:22:07;;;;;;;;;;;;;;;15.40;39.86;100653.84;4918862;28;98070;-71
2023/06/28 01:24:35;;;;;;;;;;;;;;;15.41;40.07;100647.34;4928045;27;98298;-68
2023/06/28 01:27:02;;;;;;;;;;;;;;;15.40;39.63;100653.06;4931746;28;100268;-70
2023/06/28 01:29:29;;;;;;;;;;;;;;;15.39;40.05;100644.09;4921889;28;99016;-70
2023/06/28 01:31:56;;;;;;;;;;;;;;;15.39;39.98;100654.16;4928431;28;98262;-68
2023/06/28 01:34:24;;;;;;;;;;;;;;;15.36;39.76;100658.25;4933461;28;98336;-68
2023/06/28 01:36:50;;;;;;;;;;;;;;;15.35;39.87;100651.22;4930692;28;97977;-71
2023/06/28 01:39:18;;;;;;;;;;;;;;;15.35;39.97;100659.38;4932760;28;97813;-70
2023/06/28 01:41:45;;;;;;;;;;;;;;;15.34;39.83;100654.25;4937638;27;97986;-70
2023/06/28 01:44:12;;;;;;;;;;;;;;;15.33;39.88;100658.06;4946315;28;98198;-71
2023/06/28 01:46:38;;;;;;;;;;;;;;;15.31;39.97;100661.06;4946499;28;98316;-68
2023/06/28 01:49:05;;;;;;;;;;;;;;;15.31;39.96;100666.50;4934208;28;98913;-70
2023/06/28 01:51:33;;;;;;;;;;;;;;;15.30;39.87;100664.09;4932280;28;97927;-71
2023/06/28 01:54:01;;;;;;;;;;;;;;;15.26;39.83;100663.88;4933829;27;98877;-68
2023/06/28 01:56:27;;;;;;;;;;;;;;;15.25;39.85;100656.81;4927749;28;98397;-68
2023/06/28 01:58:54;;;;;;;;;;;;;;;15.22;39.91;100669.06;4930162;28;99746;-71
2023/06/28 02:01:20;;;;;;;;;;;;;;;15.19;40.05;100664.22;4932449;28;98079;-68
2023/06/28 02:03:47;;;;;;;;;;;;;;;15.19;39.83;100671.56;4945982;28;100741;-72
2023/06/28 02:06:15;;;;;;;;;;;;;;;15.19;39.97;100658.78;4925647;28;98254;-71
2023/06/28 02:08:41;;;;;;;;;;;;;;;15.20;39.90;100665.81;4932497;27;98255;-68
2023/06/28 02:11:07;;;;;;;;;;;;;;;15.18;39.88;100659.91;4932755;28;98233;-68
2023/06/28 02:13:35;;;;;;;;;;;;;;;15.20;40.00;100662.31;4931675;28;98000;-71
2023/06/28 02:16:02;;;;;;;;;;;;;;;15.18;40.26;100670.75;4922274;28;98187;-68
2023/06/28 02:18:31;;;;;;;;;;;;;;;15.18;40.10;100667.25;4929668;28;98169;-68
2023/06/28 02:20:58;;;;;;;;;;;;;;;15.19;40.00;100668.84;4933125;27;97983;-69
2023/06/28 02:23:24;;;;;;;;;;;;;;;15.17;40.19;100669.16;4932312;28;98517;-67
2023/06/28 02:25:50;;;;;;;;;;;;;;;15.16;39.94;100662.09;4933503;28;100109;-68
2023/06/28 02:28:19;;;;;;;;;;;;;;;15.15;39.90;100659.66;4931214;28;98055;-68
2023/06/28 02:30:45;;;;;;;;;;;;;;;15.13;39.86;100659.97;4933921;28;98271;-70
2023/06/28 02:33:13;;;;;;;;;;;;;;;15.13;39.94;100662.69;4934272;28;98319;-70
2023/06/28 02:35:39;;;;;;;;;;;;;;;15.13;40.11;100662.69;4930674;27;99988;-71
2023/06/28 02:38:06;;;;;;;;;;;;;;;15.12;40.21;100669.19;4949288;27;97807;-68
2023/06/28 02:40:32;;;;;;;;;;;;;;;15.11;40.30;100670.31;4930869;28;98616;-68
2023/06/28 02:42:59;;;;;;;;;;;;;;;15.12;40.04;100671.91;4931954;28;97998;-71
2023/06/28 02:45:25;;;;;;;;;;;;;;;15.11;39.95;100675.72;4930861;28;98468;-68
2023/06/28 02:47:53;;;;;;;;;;;;;;;15.12;40.01;100681.97;4953100;27;98164;-71
2023/06/28 02:50:20;;;;;;;;;;;;;;;15.12;39.97;100679.25;4941721;27;98274;-68
2023/06/28 02:52:47;;;;;;;;;;;;;;;15.12;39.97;100676.53;4946617;28;97941;-71
2023/06/28 02:55:13;;;;;;;;;;;;;;;15.12;39.83;100681.97;4926250;28;100123;-68
2023/06/28 02:57:39;;;;;;;;;;;;;;;15.13;40.24;100680.88;4942708;27;98451;-68
2023/06/28 03:00:07;;;;;;;;;;;;;;;15.12;39.93;100674.63;4942576;27;98153;-70
2023/06/28 03:02:34;;;;;;;;;;;;;;;15.11;40.34;100670.31;4926117;27;98268;-67
2023/06/28 03:05:03;;;;;;;;;;;;;;;15.10;40.20;100663.28;4930029;28;98127;-71
2023/06/28 03:07:31;;;;;;;;;;;;;;;15.11;40.18;100669.50;4930175;28;98121;-71
2023/06/28 03:09:58;;;;;;;;;;;;;;;15.13;40.22;100667.28;4930546;28;98028;-70
2023/06/28 03:12:24;;;;;;;;;;;;;;;15.14;40.29;100674.34;4945483;28;98117;-68
2023/06/28 03:14:51;;;;;;;;;;;;;;;15.11;40.26;100673.03;4941995;28;100290;-70
2023/06/28 03:17:19;;;;;;;;;;;;;;;15.11;39.97;100675.72;4925730;28;97987;-71
2023/06/28 03:19:46;;;;;;;;;;;;;;;15.12;40.22;100676.53;4927222;28;98352;-71
2023/06/28 03:22:13;;;;;;;;;;;;;;;15.12;40.19;100668.41;4921741;28;98360;-71
2023/06/28 03:24:39;;;;;;;;;;;;;;;15.12;40.32;100668.41;4926270;28;98131;-68
2023/06/28 03:27:07;;;;;;;;;;;;;;;15.12;40.23;100666.47;4921762;28;97966;-71
2023/06/28 03:29:35;;;;;;;;;;;;;;;15.14;40.02;100671.63;4940697;28;97861;-71
2023/06/28 03:32:01;;;;;;;;;;;;;;;15.15;39.94;100665.09;4942689;28;98450;-71
2023/06/28 03:34:28;;;;;;;;;;;;;;;15.15;40.22;100668.63;4927985;28;99473;-72
2023/06/28 03:36:54;;;;;;;;;;;;;;;15.19;40.30;100663.41;4931018;28;99979;-71
2023/06/28 03:39:20;;;;;;;;;;;;;;;15.20;40.19;100660.41;4931133;28;97993;-68
2023/06/28 03:41:47;;;;;;;;;;;;;;;15.22;40.28;100670.97;4928689;28;98293;-68
2023/06/28 03:44:14;;;;;;;;;;;;;;;15.26;40.01;100672.00;4923468;28;98441;-68
2023/06/28 03:46:41;;;;;;;;;;;;;;;15.28;39.79;100677.13;4924173;28;99230;-71
2023/06/28 03:49:07;;;;;;;;;;;;;;;15.32;40.14;100670.81;4924477;28;97923;-71
2023/06/28 03:51:34;;;;;;;;;;;;;;;15.34;39.72;100675.97;4926596;28;98205;-68
2023/06/28 03:54:01;;;;;;;;;;;;;;;15.38;40.00;100683.22;4926260;28;98282;-68
2023/06/28 03:56:29;;;;;;;;;;;;;;;15.41;40.06;100682.66;4926288;28;97938;-72
2023/06/28 03:58:55;;;;;;;;;;;;;;;15.44;39.91;100687.50;4944971;28;98514;-69
2023/06/28 04:01:22;;;;;;;;;;;;;;;15.49;40.01;100686.63;4925412;28;99679;-69
2023/06/28 04:03:50;;;;;;;;;;;;;;;15.55;39.92;100681.91;4941964;28;99669;-69
2023/06/28 04:06:17;;;;;;;;;;;;;;;15.59;40.03;100694.59;4940433;28;98349;-69
2023/06/28 04:08:47;;;;;;;;;;;;;;;15.66;39.63;100695.06;4942387;28;97979;-72
2023/06/28 04:11:13;;;;;;;;;;;;;;;15.75;39.72;100697.09;4925524;28;98148;-69
2023/06/28 04:13:40;;;;;;;;;;;;;;;15.82;39.62;100698.34;4924013;28;98177;-69
2023/06/28 04:16:06;;;;;;;;;;;;;;;15.90;39.56;100705.81;4925846;28;98954;-69
2023/06/28 04:18:33;;;;;;;;;;;;;;;16.00;39.72;100701.34;4926323;28;98735;-69
2023/06/28 04:20:59;;;;;;;;;;;;;;;16.08;39.48;100700.66;4944617;28;98334;-72
2023/06/28 04:23:25;;;;;;;;;;;;;;;16.13;39.66;100689.69;4942711;28;99929;-69
2023/06/28 04:25:53;;;;;;;;;;;;;;;16.23;39.58;100696.84;4928954;28;99701;-69
2023/06/28 04:28:20;;;;;;;;;;;;;;;16.30;39.48;100687.19;4928886;28;98112;-69
2023/06/28 04:30:46;;;;;;;;;;;;;;;16.36;39.60;100690.63;4921865;28;98228;-69
2023/06/28 04:33:14;;;;;;;;;;;;;;;16.45;39.41;100692.34;4925752;28;98770;-68
2023/06/28 04:35:46;;;;;;;;;;;;;;;16.53;39.43;100690.03;4929761;28;97833;-72
2023/06/28 04:38:13;;;;;;;;;;;;;;;16.57;39.62;100701.94;4927660;28;98154;-72
2023/06/28 04:40:39;;;;;;;;;;;;;;;16.61;39.53;100714.63;4935626;28;98043;-69
2023/06/28 04:43:09;;;;;;;;;;;;;;;16.67;39.50;100718.06;4917042;28;98127;-68
2023/06/28 04:45:37;;;;;;;;;;;;;;;16.77;39.55;100717.88;4938904;28;98150;-72
2023/06/28 04:48:06;;;;;;;;;;;;;;;16.89;39.69;100717.38;4922000;28;98283;-68
2023/06/28 04:50:34;;;;;;;;;;;;;;;17.00;39.30;100713.34;4939504;28;98862;-72
2023/06/28 04:53:03;;;;;;;;;;;;;;;17.09;39.28;100708.78;4921919;28;98143;-72
2023/06/28 04:55:32;;;;;;;;;;;;;;;17.25;39.27;100711.19;4938554;28;99482;-72
2023/06/28 04:58:08;;;;;;;;;;;;;;;17.34;39.27;100712.09;4943134;28;98343;-68
2023/06/28 05:00:35;;;;;;;;;;;;;;;17.42;39.10;100712.16;4920907;28;100012;-71
2023/06/28 05:03:02;;;;;;;;;;;;;;;17.50;39.19;100718.00;4921228;28;97862;-72
2023/06/28 05:05:29;;;;;;;;;;;;;;;17.60;39.27;100725.91;4936280;28;101225;-68
2023/06/28 05:07:55;;;;;;;;;;;;;;;17.67;38.97;100723.56;4938496;28;98172;-68
2023/06/28 05:10:22;;;;;;;;;;;;;;;17.74;39.16;100723.16;4934646;28;98265;-72
2023/06/28 05:12:51;;;;;;;;;;;;;;;17.86;39.09;100721.50;4925665;28;98389;-71
2023/06/28 05:15:19;;;;;;;;;;;;;;;17.88;39.09;100710.28;4925954;28;98249;-72
2023/06/28 05:17:45;;;;;;;;;;;;;;;17.84;39.70;100715.56;4923247;28;97978;-73
2023/06/28 05:20:11;;;;;;;;;;;;;;;17.78;39.38;100714.06;4919337;28;99570;-73
2023/06/28 05:22:43;;;;;;;;;;;;;;;17.77;39.43;100714.41;4926155;28;98062;-73
2023/06/28 05:25:10;;;;;;;;;;;;;;;17.81;39.30;100724.38;4938065;28;98132;-73
2023/06/28 05:27:36;;;;;;;;;;;;;;;17.86;39.29;100710.59;4926346;28;98068;-68
2023/06/28 05:30:04;;;;;;;;;;;;;;;18.09;39.09;100711.41;4923519;28;98128;-74
2023/06/28 05:32:30;;;;;;;;;;;;;;;18.42;38.97;100718.47;4932877;28;98255;-68
2023/06/28 05:34:56;;;;;;;;;;;;;;;18.48;38.92;100719.97;4926340;28;98129;-68
2023/06/28 05:37:22;;;;;;;;;;;;;;;18.52;38.80;100715.47;4961201;28;98176;-68
2023/06/28 05:39:52;;;;;;;;;;;;;;;18.63;39.03;100720.34;4920599;28;98020;-67
2023/06/28 05:42:18;;;;;;;;;;;;;;;18.76;38.79;100724.13;4927781;28;98287;-67
2023/06/28 05:44:45;;;;;;;;;;;;;;;18.82;38.84;100725.59;4924216;28;98085;-68
2023/06/28 05:47:11;;;;;;;;;;;;;;;18.95;38.86;100731.25;4918446;28;98282;-73
2023/06/28 05:49:37;;;;;;;;;;;;;;;19.02;38.72;100729.66;4938976;28;98358;-68
2023/06/28 05:52:05;;;;;;;;;;;;;;;19.20;38.58;100730.50;4940960;28;98190;-68
2023/06/28 05:54:31;;;;;;;;;;;;;;;19.40;38.47;100726.34;4922947;28;98849;-73
2023/06/28 05:56:58;;;;;;;;;;;;;;;19.68;38.52;100729.59;4942326;28;98427;-73
2023/06/28 05:59:25;;;;;;;;;;;;;;;19.77;38.58;100724.94;4925814;28;98105;-73
2023/06/28 06:01:51;;;;;;;;;;;;;;;19.79;38.81;100733.63;4925729;28;99909;-67
2023/06/28 06:04:17;;;;;;;;;;;;;;;19.78;38.64;100723.00;4933675;28;98352;-72
2023/06/28 06:06:44;;;;;;;;;;;;;;;19.75;38.77;100723.66;4937122;28;100559;-73
2023/06/28 06:09:11;;;;;;;;;;;;;;;19.73;38.85;100728.63;4925110;28;98781;-72
2023/06/28 06:11:37;;;;;;;;;;;;;;;19.75;38.79;100724.44;4929660;28;98136;-68
2023/06/28 06:14:04;;;;;;;;;;;;;;;19.80;38.85;100732.47;4930384;28;98049;-73
2023/06/28 06:16:30;;;;;;;;;;;;;;;19.88;38.51;100724.59;4946604;28;97926;-73
2023/06/28 06:18:57;;;;;;;;;;;;;;;19.94;38.63;100721.38;4933417;28;98523;-67
2023/06/28 06:21:24;;;;;;;;;;;;;;;19.95;38.87;100712.03;4962050;28;97996;-67
2023/06/28 06:23:51;;;;;;;;;;;;;;;19.92;38.95;100723.63;4932527;28;98092;-67
2023/06/28 06:26:17;;;;;;;;;;;;;;;19.90;38.96;100722.34;4960395;28;98259;-72
2023/06/28 06:28:44;;;;;;;;;;;;;;;19.98;38.83;100724.28;4924567;28;98055;-73
2023/06/28 06:31:13;;;;;;;;;;;;;;;20.91;37.87;100722.72;4931436;28;98242;-72
2023/06/28 06:33:40;;;;;;;;;;;;;;;21.47;37.62;100718.66;4943706;28;98051;-68
2023/06/28 06:36:07;;;;;;;;;;;;;;;21.83;37.51;100728.19;4945727;28;97946;-73
2023/06/28 06:38:35;;;;;;;;;;;;;;;21.85;37.66;100723.19;4927318;28;98330;-73
2023/06/28 06:41:02;;;;;;;;;;;;;;;22.50;37.19;100728.97;4944528;28;98469;-73
2023/06/28 06:43:28;;;;;;;;;;;;;;;22.45;37.55;100734.69;4932556;28;97968;-73
2023/06/28 06:45:55;;;;;;;;;;;;;;;22.79;37.05;100738.94;4929051;28;98082;-72
2023/06/28 06:48:21;;;;;;;;;;;;;;;22.76;37.47;100742.41;4929787;28;98080;-67
2023/06/28 06:50:48;;;;;;;;;;;;;;;22.81;37.47;100738.63;4945562;28;98641;-73
2023/06/28 06:53:15;;;;;;;;;;;;;;;22.96;37.38;100735.22;4927763;28;98161;-67
2023/06/28 06:55:42;;;;;;;;;;;;;;;23.26;37.09;100739.31;4939153;28;97836;-73
2023/06/28 06:58:08;;;;;;;;;;;;;;;23.71;36.99;100741.03;4923745;28;100105;-73
2023/06/28 07:00:35;;;;;;;;;;;;;;;23.86;36.94;100742.25;4938926;28;98743;-66
2023/06/28 07:03:02;;;;;;;;;;;;;;;24.86;36.08;100744.06;4928455;28;98409;-73
2023/06/28 07:05:28;;;;;;;;;;;;;;;24.86;36.01;100746.81;4939411;28;98262;-73
2023/06/28 07:07:55;;;;;;;;;;;;;;;24.60;36.92;100748.19;4928672;28;98266;-66
2023/06/28 07:10:21;;;;;;;;;;;;;;;24.36;37.18;100751.03;4918935;28;98141;-66
2023/06/28 07:12:49;;;;;;;;;;;;;;;24.18;37.21;100743.13;4926607;28;98737;-73
2023/06/28 07:15:15;;;;;;;;;;;;;;;24.03;37.52;100741.13;4926792;28;97949;-67
2023/06/28 07:17:42;;;;;;;;;;;;;;;24.05;37.31;100738.84;4926357;28;98295;-66
2023/06/28 07:20:09;;;;;;;;;;;;;;;24.13;37.14;100735.13;4924198;28;97965;-73
2023/06/28 07:22:35;;;;;;;;;;;;;;;24.41;37.13;100740.63;4928454;28;99432;-68
2023/06/28 07:25:04;;;;;;;;;;;;;;;24.52;36.92;100745.56;4929239;28;98123;-66
2023/06/28 07:27:31;;;;;;;;;;;;;;;24.48;37.24;100735.28;4922041;28;101213;-67
2023/06/28 07:29:57;;;;;;;;;;;;;;;24.58;37.18;100744.16;4922620;28;98101;-67
2023/06/28 07:32:26;;;;;;;;;;;;;;;24.81;36.93;100741.59;4922653;28;98030;-66
2023/06/28 07:34:57;;;;;;;;;;;;;;;26.52;35.25;100736.09;4926630;28;98877;-73
2023/06/28 07:37:24;;;;;;;;;;;;;;;27.60;34.86;100736.53;4930945;28;99395;-67
2023/06/28 07:39:51;;;;;;;;;;;;;;;27.91;35.04;100745.63;4929330;28;100833;-73
2023/06/28 07:42:20;;;;;;;;;;;;;;;28.93;34.54;100742.25;4923849;28;98200;-73
2023/06/28 07:44:46;;;;;;;;;;;;;;;29.62;33.99;100738.69;4929641;28;98223;-73
2023/06/28 07:47:12;;;;;;;;;;;;;;;29.78;34.41;100741.94;4933179;28;98274;-73
2023/06/28 07:49:39;;;;;;;;;;;;;;;30.23;34.16;100734.16;4938970;28;99616;-74
2023/06/28 07:52:07;;;;;;;;;;;;;;;30.51;34.36;100735.34;4923485;28;98132;-67
2023/06/28 07:54:33;;;;;;;;;;;;;;;29.22;35.73;100734.13;4928542;28;98314;-73
2023/06/28 07:57:00;;;;;;;;;;;;;;;28.85;35.62;100737.84;4944065;28;98849;-73
2023/06/28 07:59:27;;;;;;;;;;;;;;;28.87;35.51;100729.91;4946703;28;98113;-73
2023/06/28 08:01:53;;;;;;;;;;;;;;;29.93;34.87;100731.66;4930352;28;99769;-73
2023/06/28 08:04:20;;;;;;;;;;;;;;;31.13;33.77;100725.78;4931608;28;98639;-72
2023/06/28 08:06:46;;;;;;;;;;;;;;;31.12;34.01;100721.41;4925787;28;98410;-67
2023/06/28 08:09:13;;;;;;;;;;;;;;;29.42;35.79;100720.75;4947206;28;99456;-73
2023/06/28 08:11:40;;;;;;;;;;;;;;;30.73;34.35;100717.50;4931402;28;98058;-73
2023/06/28 08:14:07;;;;;;;;;;;;;;;33.13;32.48;100722.56;4942140;28;98248;-67
2023/06/28 08:16:33;;;;;;;;;;;;;;;34.66;31.48;100716.03;4928928;28;98264;-74
2023/06/28 08:19:00;;;;;;;;;;;;;;;36.13;30.94;100728.69;4935453;28;98252;-73
2023/06/28 08:21:26;;;;;;;;;;;;;;;36.85;30.63;100733.31;4928114;28;97974;-74
2023/06/28 08:23:52;;;;;;;;;;;;;;;37.34;30.87;100713.53;4929106;28;97991;-68
2023/06/28 08:26:18;;;;;;;;;;;;;;;37.97;30.24;100733.78;4939187;28;98198;-67
2023/06/28 08:28:45;;;;;;;;;;;;;;;36.53;32.07;100725.75;4944342;28;100649;-67
2023/06/28 08:31:13;;;;;;;;;;;;;;;36.30;32.62;100723.88;4927112;28;97923;-68
2023/06/28 08:33:39;;;;;;;;;;;;;;;38.27;30.56;100721.94;4922437;28;98019;-73
2023/06/28 08:36:06;;;;;;;;;;;;;;;38.09;31.48;100720.97;4927500;28;98420;-67
2023/06/28 08:38:32;;;;;;;;;;;;;;;36.12;32.95;100713.09;4927334;28;98794;-68
2023/06/28 08:40:58;;;;;;;;;;;;;;;35.26;33.55;100711.34;4927733;28;98155;-73
2023/06/28 08:43:25;;;;;;;;;;;;;;;34.10;34.53;100710.94;4924920;28;98139;-67
2023/06/28 08:45:53;;;;;;;;;;;;;;;35.53;32.88;100705.63;4925362;28;98231;-73
2023/06/28 08:48:19;;;;;;;;;;;;;;;33.19;34.94;100709.69;4925148;28;98031;-73
2023/06/28 08:50:46;;;;;;;;;;;;;;;31.87;35.96;100713.56;4929745;28;99207;-68
2023/06/28 08:53:13;;;;;;;;;;;;;;;34.88;32.63;100702.47;4927442;28;98243;-68
2023/06/28 08:55:41;;;;;;;;;;;;;;;36.54;31.41;100712.50;4922324;28;98023;-68
2023/06/28 08:58:07;;;;;;;;;;;;;;;37.27;31.52;100718.56;4941008;28;98078;-67
2023/06/28 09:00:34;;;;;;;;;;;;;;;35.67;32.92;100703.72;4953199;28;99554;-73
2023/06/28 09:03:01;;;;;;;;;;;;;;;37.59;31.10;100697.97;4928247;28;98102;-68
2023/06/28 09:05:27;;;;;;;;;;;;;;;36.98;32.03;100710.97;4926116;28;99678;-68
2023/06/28 09:07:53;;;;;;;;;;;;;;;35.16;33.72;100701.13;4927150;28;97841;-73
2023/06/28 09:10:20;;;;;;;;;;;;;;;33.98;34.92;100697.53;4926437;28;98050;-73
2023/06/28 09:12:47;;;;;;;;;;;;;;;33.82;34.35;100705.75;4926427;28;98247;-73
2023/06/28 09:15:16;;;;;;;;;;;;;;;33.13;35.00;100691.84;4927205;28;98413;-67
2023/06/28 09:17:42;;;;;;;;;;;;;;;32.49;35.26;100695.25;4920970;28;97816;-67
2023/06/28 09:20:18;;;;;;;;;;;;;;;32.16;35.39;100694.69;4941752;28;98341;-73
2023/06/28 09:23:15;;;;;;;;;;;;;;;32.59;34.63;100693.56;4942505;28;98141;-74
2023/06/28 09:25:42;;;;;;;;;;;;;;;32.30;34.78;100690.19;4929085;28;98118;-74
2023/06/28 09:28:08;;;;;;;;;;;;;;;32.14;34.95;100693.50;4942760;28;99056;-67
2023/06/28 09:30:36;;;;;;;;;;;;;;;33.09;33.63;100690.28;4924600;28;98111;-68
2023/06/28 09:33:04;;;;;;;;;;;;;;;32.67;34.37;100690.28;4926022;28;98573;-67
2023/06/28 09:35:30;;;;;;;;;;;;;;;33.16;33.67;100699.38;4933020;28;99515;-67
2023/06/28 09:38:04;;;;;;;;;;;;;;;33.36;33.40;100696.72;4944872;28;97875;-73
2023/06/28 09:40:36;;;;;;;;;;;;;;;33.09;34.03;100691.09;4926785;28;98084;-74
2023/06/28 09:43:03;;;;;;;;;;;;;;;32.32;34.67;100687.78;4944828;28;98247;-73
2023/06/28 09:45:31;;;;;;;;;;;;;;;35.97;31.29;100697.03;4927710;28;97838;-67
2023/06/28 09:48:02;;;;;;;;;;;;;;;38.23;29.60;100693.13;4958855;28;97926;-67
2023/06/28 09:50:40;;;;;;;;;;;;;;;39.18;29.58;100701.50;4928062;28;98467;-74
2023/06/28 09:53:13;;;;;;;;;;;;;;;40.78;28.84;100690.69;4955305;28;98077;-73
2023/06/28 09:55:40;;;;;;;;;;;;;;;41.54;28.68;100697.34;4947241;28;98142;-67
2023/06/28 09:58:14;;;;;;;;;;;;;;;42.24;28.40;100687.94;4928076;28;98733;-74
2023/06/28 10:00:41;;;;;;;;;;;;;;;43.10;28.31;100690.72;4943214;28;98364;-68
2023/06/28 10:03:10;;;;;;;;;;;;;;;43.72;28.15;100679.66;4939883;28;98106;-73
2023/06/28 10:05:38;;;;;;;;;;;;;;;43.72;28.67;100677.59;4931898;28;98183;-74
2023/06/28 10:08:12;;;;;;;;;;;;;;;42.93;29.37;100666.16;4927332;27;98265;-68
2023/06/28 10:10:39;;;;;;;;;;;;;;;43.79;28.90;100663.00;4935103;27;97960;-75
2023/06/28 10:13:19;;;;;;;;;;;;;;;44.29;28.15;100653.63;4932936;27;98292;-74
2023/06/28 10:15:55;;;;;;;;;;;;;;;42.60;29.77;100667.06;4931194;28;98195;-74
2023/06/28 10:18:22;;;;;;;;;;;;;;;41.52;30.81;100653.84;4947466;28;98424;-68
2023/06/28 10:20:48;;;;;;;;;;;;;;;42.15;30.23;100660.44;4934581;27;97921;-68
2023/06/28 10:23:15;;;;;;;;;;;;;;;40.19;32.01;100656.91;4933321;28;98416;-68
2023/06/28 10:25:44;;;;;;;;;;;;;;;41.43;30.86;100657.50;4950216;27;100336;-73
2023/06/28 10:28:14;;;;;;;;;;;;;;;41.84;30.24;100663.63;4948438;28;98170;-75
2023/06/28 10:30:42;;;;;;;;;;;;;;;40.06;31.87;100661.88;4930552;28;98561;-67
2023/06/28 10:33:08;;;;;;;;;;;;;;;40.27;31.52;100648.91;4934470;28;97873;-67
2023/06/28 10:35:35;;;;;;;;;;;;;;;38.79;32.55;100643.81;4934525;28;98457;-71
2023/06/28 10:38:04;;;;;;;;;;;;;;;37.69;33.78;100640.66;4949178;27;98060;-74
2023/06/28 10:40:30;;;;;;;;;;;;;;;36.84;33.89;100643.94;4927347;28;98215;-75
2023/06/28 10:42:57;;;;;;;;;;;;;;;36.18;34.09;100631.25;4946157;27;99055;-74
2023/06/28 10:45:37;;;;;;;;;;;;;;;35.77;33.97;100638.22;4931475;28;98716;-67
2023/06/28 10:48:04;;;;;;;;;;;;;;;35.50;34.07;100639.22;4925590;27;98117;-73
2023/06/28 10:50:40;;;;;;;;;;;;;;;34.69;34.44;100639.63;4925106;27;97999;-73
2023/06/28 10:53:07;;;;;;;;;;;;;;;33.93;34.66;100642.09;4933536;27;98261;-67
2023/06/28 10:55:34;;;;;;;;;;;;;;;33.19;35.35;100655.88;4931177;27;99599;-67
2023/06/28 10:58:11;;;;;;;;;;;;;;;32.33;35.92;100656.72;4935543;27;98069;-73
2023/06/28 11:00:39;;;;;;;;;;;;;;;32.45;35.73;100644.28;4932682;28;98150;-72
2023/06/28 11:03:06;;;;;;;;;;;;;;;32.36;35.23;100649.53;4955138;27;98199;-74
2023/06/28 11:05:44;;;;;;;;;;;;;;;32.52;34.72;100652.59;4931724;28;98277;-73
2023/06/28 11:08:15;;;;;;;;;;;;;;;32.96;34.21;100656.53;4956436;27;98189;-74
2023/06/28 11:10:51;;;;;;;;;;;;;;;33.07;34.41;100657.22;4932734;28;98349;-67
2023/06/28 11:13:45;;;;;;;;;;;;;;;32.95;34.49;100652.16;4931778;27;98302;-73
2023/06/28 11:16:13;;;;;;;;;;;;;;;32.50;34.73;100657.78;4942591;28;98598;-67
2023/06/28 11:18:40;;;;;;;;;;;;;;;32.09;35.22;100647.34;4934619;28;98026;-69
2023/06/28 11:21:08;;;;;;;;;;;;;;;31.65;35.40;100661.94;4929918;28;98059;-73
2023/06/28 11:23:34;;;;;;;;;;;;;;;31.34;35.39;100652.56;4930136;28;98276;-74
2023/06/28 11:26:05;;;;;;;;;;;;;;;32.46;34.33;100662.59;4962791;27;97916;-66
2023/06/28 11:28:32;;;;;;;;;;;;;;;33.37;33.40;100656.44;4932951;28;98185;-66
2023/06/28 11:31:14;;;;;;;;;;;;;;;34.23;32.61;100663.59;4924771;27;98085;-66
2023/06/28 11:33:41;;;;;;;;;;;;;;;33.60;33.13;100657.75;4959327;28;98038;-73
2023/06/28 11:36:08;;;;;;;;;;;;;;;33.85;33.58;100668.56;4931260;28;99878;-67
2023/06/28 11:38:34;;;;;;;;;;;;;;;33.67;33.35;100658.44;4942570;28;98295;-67
2023/06/28 11:41:00;;;;;;;;;;;;;;;34.35;32.91;100660.22;4925444;27;98084;-67
2023/06/28 11:43:26;;;;;;;;;;;;;;;33.96;33.26;100666.41;4947042;28;98196;-67
2023/06/28 11:45:52;;;;;;;;;;;;;;;34.20;32.91;100658.88;4934306;28;98170;-73
2023/06/28 11:48:20;;;;;;;;;;;;;;;34.27;33.27;100658.75;4931342;28;97904;-74
2023/06/28 11:50:56;;;;;;;;;;;;;;;33.95;33.56;100662.03;4930332;27;99084;-73
2023/06/28 11:53:24;;;;;;;;;;;;;;;33.37;33.94;100655.66;4931442;27;97999;-67
2023/06/28 11:55:52;;;;;;;;;;;;;;;32.62;34.58;100653.66;4930928;27;97983;-66
2023/06/28 11:58:35;;;;;;;;;;;;;;;32.04;34.95;100658.94;4934994;28;97963;-66
2023/06/28 12:01:02;;;;;;;;;;;;;;;31.42;35.29;100645.75;4924888;28;99502;-74
2023/06/28 12:03:29;;;;;;;;;;;;;;;31.07;35.47;100658.59;4927614;28;98075;-73
2023/06/28 12:05:55;;;;;;;;;;;;;;;31.22;34.97;100656.56;4945875;28;98031;-73
2023/06/28 12:08:22;;;;;;;;;;;;;;;31.62;34.69;100651.63;4932062;27;98381;-73
2023/06/28 12:10:48;;;;;;;;;;;;;;;32.07;34.04;100657.31;4949684;27;98358;-67
2023/06/28 12:13:23;;;;;;;;;;;;;;;32.87;33.29;100654.22;4932242;28;98048;-67
2023/06/28 12:15:49;;;;;;;;;;;;;;;33.55;32.97;100650.63;4943828;28;98675;-67
2023/06/28 12:18:17;;;;;;;;;;;;;;;34.17;33.14;100645.72;4929606;28;98496;-74
2023/06/28 12:20:43;;;;;;;;;;;;;;;34.11;33.17;100651.03;4927862;28;98220;-66
2023/06/28 12:23:13;;;;;;;;;;;;;;;33.84;33.49;100650.22;4932050;28;98078;-74
2023/06/28 12:25:44;;;;;;;;;;;;;;;33.66;33.78;100656.88;4923180;27;99460;-74
2023/06/28 12:28:14;;;;;;;;;;;;;;;33.41;33.88;100645.22;4920895;28;98128;-67
2023/06/28 12:30:40;;;;;;;;;;;;;;;33.08;33.94;100658.00;4943202;28;98046;-73
2023/06/28 12:33:07;;;;;;;;;;;;;;;32.38;34.40;100653.47;4932308;28;98223;-75
2023/06/28 12:35:34;;;;;;;;;;;;;;;33.58;32.99;100652.59;4929864;28;97938;-74
2023/06/28 12:38:02;;;;;;;;;;;;;;;33.83;32.90;100652.22;4928974;27;98047;-66